createdAt,value
2022-12-08T00:01:14.634Z,14.03
2022-12-08T00:04:16.506Z,8.17
2022-12-08T00:07:36.818Z,10.40
2022-12-08T00:10:49.001Z,8.77
2022-12-08T00:13:51.207Z,8.13
2022-12-08T00:16:53.680Z,5.93
2022-12-08T00:19:55.418Z,8.60
2022-12-08T00:22:57.084Z,7.13
2022-12-08T00:26:03.167Z,8.83
2022-12-08T00:29:05.443Z,6.27
2022-12-08T00:32:07.429Z,8.17
2022-12-08T00:35:09.265Z,10.37
2022-12-08T00:38:10.941Z,14.27
2022-12-08T00:41:43.566Z,17.73
2022-12-08T00:44:45.971Z,8.77
2022-12-08T00:47:47.688Z,9.33
2022-12-08T00:50:50.246Z,8.40
2022-12-08T00:53:51.916Z,12.83
2022-12-08T00:56:53.758Z,11.87
2022-12-08T00:59:55.453Z,14.40
2022-12-08T01:02:57.144Z,19.73
2022-12-08T01:06:03.622Z,14.37
2022-12-08T01:09:07.825Z,10.73
2022-12-08T01:12:09.528Z,10.13
2022-12-08T01:15:11.357Z,9.73
2022-12-08T01:18:13.526Z,10.27
2022-12-08T01:21:15.214Z,9.00
2022-12-08T01:24:20.068Z,11.83
2022-12-08T01:27:21.715Z,11.00
2022-12-08T01:30:23.392Z,8.30
2022-12-08T01:33:25.570Z,11.77
2022-12-08T01:36:30.088Z,17.47
2022-12-08T01:39:31.796Z,11.93
2022-12-08T01:42:34.444Z,17.97
2022-12-08T01:45:36.155Z,13.17
2022-12-08T01:48:37.969Z,11.60
2022-12-08T01:51:52.796Z,12.33
2022-12-08T01:55:01.606Z,9.53
2022-12-08T01:58:10.657Z,13.33
2022-12-08T02:01:12.608Z,13.07
2022-12-08T02:04:14.315Z,14.47
2022-12-08T02:07:17.689Z,16.83
2022-12-08T02:10:21.504Z,16.10
2022-12-08T02:13:24.469Z,16.37
2022-12-08T02:16:58.670Z,17.47
2022-12-08T02:20:28.604Z,14.10
2022-12-08T02:24:03.470Z,13.60
2022-12-08T02:27:37.528Z,13.43
2022-12-08T02:30:44.978Z,15.47
2022-12-08T02:34:12.207Z,17.03
2022-12-08T02:37:35.010Z,15.97
2022-12-08T02:40:44.728Z,12.00
2022-12-08T02:43:51.246Z,18.13
2022-12-08T02:46:57.951Z,13.93
2022-12-08T02:49:59.730Z,14.93
2022-12-08T02:53:02.828Z,15.67
2022-12-08T02:56:42.234Z,22.33
2022-12-08T03:00:08.879Z,24.67
2022-12-08T03:03:46.688Z,17.53
2022-12-08T03:07:04.661Z,19.37
2022-12-08T03:10:09.470Z,18.50
2022-12-08T03:13:19.504Z,22.40
2022-12-08T03:16:25.151Z,17.30
2022-12-08T03:19:37.166Z,25.93
2022-12-08T03:22:41.456Z,23.00
2022-12-08T03:25:58.287Z,25.27
2022-12-08T03:29:00.399Z,22.80
2022-12-08T03:32:14.898Z,22.97
2022-12-08T03:35:30.883Z,23.10
2022-12-08T03:38:44.578Z,30.57
2022-12-08T03:41:47.247Z,27.23
2022-12-08T03:44:48.954Z,24.47
2022-12-08T03:47:51.304Z,21.53
2022-12-08T03:50:53.067Z,24.20
2022-12-08T03:53:54.713Z,19.60
2022-12-08T03:56:56.454Z,23.87
2022-12-08T03:59:58.118Z,23.77
2022-12-08T04:02:59.928Z,24.60
2022-12-08T04:06:01.657Z,28.00
2022-12-08T04:09:04.304Z,29.07
2022-12-08T04:12:06.215Z,29.20
2022-12-08T04:15:08.562Z,26.67
2022-12-08T04:18:10.192Z,25.80
2022-12-08T04:21:12.002Z,23.80
2022-12-08T04:24:13.663Z,26.97
2022-12-08T04:27:15.319Z,28.33
2022-12-08T04:30:16.988Z,32.93
2022-12-08T04:33:18.650Z,31.47
2022-12-08T04:36:20.352Z,27.67
2022-12-08T04:39:22.028Z,26.90
2022-12-08T04:42:23.675Z,23.80
2022-12-08T04:45:25.345Z,28.27
2022-12-08T04:48:27.081Z,31.80
2022-12-08T04:51:28.791Z,22.47
2022-12-08T04:54:30.490Z,28.60
2022-12-08T04:57:32.213Z,31.70
2022-12-08T05:00:33.992Z,29.47
2022-12-08T05:03:35.853Z,28.00
2022-12-08T05:06:37.494Z,33.77
2022-12-08T05:09:39.135Z,28.27
2022-12-08T05:12:40.802Z,27.53
2022-12-08T05:15:50.901Z,26.33
2022-12-08T05:18:52.945Z,25.90
2022-12-08T05:21:54.662Z,31.07
2022-12-08T05:24:56.293Z,24.97
2022-12-08T05:28:17.526Z,22.27
2022-12-08T05:31:19.616Z,23.63
2022-12-08T05:34:21.340Z,21.90
2022-12-08T05:37:23.036Z,19.27
2022-12-08T05:40:24.669Z,17.03
2022-12-08T05:43:26.957Z,20.53
2022-12-08T05:46:28.788Z,18.23
2022-12-08T05:49:30.517Z,19.47
2022-12-08T05:52:32.472Z,18.17
2022-12-08T05:55:34.123Z,24.23
2022-12-08T05:58:35.819Z,21.97
2022-12-08T06:01:37.537Z,20.10
2022-12-08T06:04:39.344Z,18.10
2022-12-08T06:07:41.020Z,21.77
2022-12-08T06:10:44.464Z,18.97
2022-12-08T06:13:46.219Z,20.07
2022-12-08T06:16:47.940Z,17.87
2022-12-08T06:19:49.602Z,14.40
2022-12-08T06:22:51.254Z,15.93
2022-12-08T06:25:52.892Z,17.27
2022-12-08T06:28:54.643Z,13.30
2022-12-08T06:31:56.404Z,14.23
2022-12-08T06:34:58.158Z,13.30
2022-12-08T06:37:59.848Z,13.83
2022-12-08T06:41:01.546Z,13.00
2022-12-08T06:44:03.252Z,11.10
2022-12-08T06:47:05.132Z,11.43
2022-12-08T06:50:08.002Z,10.07
2022-12-08T06:53:13.027Z,9.20
2022-12-08T06:56:15.820Z,11.30
2022-12-08T06:59:19.414Z,11.73
2022-12-08T07:02:21.089Z,9.80
2022-12-08T07:05:22.802Z,6.37
2022-12-08T07:08:24.582Z,6.00
2022-12-08T07:11:26.999Z,7.43
2022-12-08T07:14:28.854Z,8.47
2022-12-08T07:17:30.497Z,7.03
2022-12-08T07:20:32.216Z,6.43
2022-12-08T07:23:34.395Z,4.60
2022-12-08T07:26:36.090Z,4.37
2022-12-08T07:29:37.794Z,4.57
2022-12-08T07:32:39.895Z,5.63
2022-12-08T07:35:46.342Z,4.60
2022-12-08T07:38:53.150Z,10.07
2022-12-08T07:41:54.801Z,5.27
2022-12-08T07:44:56.497Z,4.10
2022-12-08T07:47:58.422Z,5.20
2022-12-08T07:51:02.393Z,3.70
2022-12-08T07:54:04.274Z,3.73
2022-12-08T07:57:06.472Z,5.07
2022-12-08T08:00:08.842Z,4.03
2022-12-08T08:03:16.338Z,5.03
2022-12-08T08:06:18.086Z,5.00
2022-12-08T08:09:19.744Z,4.77
2022-12-08T08:12:36.734Z,6.27
2022-12-08T08:15:38.489Z,5.60
2022-12-08T08:18:40.618Z,3.87
2022-12-08T08:21:46.295Z,4.23
2022-12-08T08:24:48.266Z,3.20
2022-12-08T08:27:50.312Z,4.60
2022-12-08T08:30:52.069Z,4.97
2022-12-08T08:33:54.180Z,7.83
2022-12-08T08:36:55.885Z,1.83
2022-12-08T08:39:57.775Z,6.07
2022-12-08T08:43:01.550Z,3.00
2022-12-08T08:46:04.912Z,2.20
2022-12-08T08:49:06.616Z,2.87
2022-12-08T08:52:08.263Z,2.30
2022-12-08T08:55:10.013Z,4.10
2022-12-08T08:58:11.682Z,2.50
2022-12-08T09:01:22.397Z,2.20
2022-12-08T09:04:25.524Z,3.90
2022-12-08T09:07:27.276Z,3.63
2022-12-08T09:10:28.953Z,13.37
2022-12-08T09:13:30.643Z,11.27
2022-12-08T09:16:36.221Z,2.60
2022-12-08T09:19:40.660Z,3.17
2022-12-08T09:22:42.306Z,3.87
2022-12-08T09:25:45.535Z,4.80
2022-12-08T09:28:47.545Z,3.40
2022-12-08T09:31:49.304Z,4.47
2022-12-08T09:34:52.383Z,2.40
2022-12-08T09:37:54.149Z,3.57
2022-12-08T09:40:56.231Z,3.30
2022-12-08T09:44:14.033Z,3.10
2022-12-08T09:47:33.741Z,2.77
2022-12-08T09:50:46.511Z,3.37
2022-12-08T09:53:56.363Z,3.20
2022-12-08T09:57:03.241Z,3.30
2022-12-08T10:00:06.709Z,4.33
2022-12-08T10:03:16.610Z,4.17
2022-12-08T10:06:31.599Z,3.87
2022-12-08T10:09:44.817Z,4.13
2022-12-08T10:12:53.938Z,6.00
2022-12-08T10:16:15.245Z,3.07
2022-12-08T10:19:23.352Z,4.47
2022-12-08T10:22:31.180Z,4.43
2022-12-08T10:25:42.959Z,4.00
2022-12-08T10:28:45.621Z,5.93
2022-12-08T10:31:47.703Z,4.70
2022-12-08T10:35:01.511Z,5.30
2022-12-08T10:38:06.277Z,5.43
2022-12-08T10:41:12.924Z,5.67
2022-12-08T10:44:16.865Z,8.63
2022-12-08T10:47:21.712Z,6.13
2022-12-08T10:50:43.195Z,6.30
2022-12-08T10:53:46.494Z,10.60
2022-12-08T10:56:55.566Z,6.27
2022-12-08T10:59:57.571Z,6.43
2022-12-08T11:03:01.710Z,8.40
2022-12-08T11:06:14.865Z,6.03
2022-12-08T11:09:16.487Z,5.97
2022-12-08T11:12:20.438Z,7.33
2022-12-08T11:15:22.195Z,8.10
2022-12-08T11:18:23.842Z,5.47
2022-12-08T11:21:46.103Z,5.80
2022-12-08T11:24:57.813Z,5.53
2022-12-08T11:28:10.792Z,5.73
2022-12-08T11:31:20.907Z,7.23
2022-12-08T11:34:40.211Z,8.73
2022-12-08T11:37:43.437Z,9.70
2022-12-08T11:40:45.115Z,6.43
2022-12-08T11:43:51.624Z,5.43
2022-12-08T11:46:58.477Z,6.27
2022-12-08T11:50:37.863Z,8.50
2022-12-08T11:54:13.847Z,11.17
2022-12-08T11:57:20.746Z,16.20
2022-12-08T12:00:22.597Z,7.00
2022-12-08T12:03:34.659Z,10.03
2022-12-08T12:06:55.107Z,6.87
2022-12-08T12:10:00.587Z,6.17
2022-12-08T12:13:23.743Z,8.17
2022-12-08T12:17:05.423Z,8.97
2022-12-08T12:20:32.939Z,6.30
2022-12-08T12:23:49.465Z,5.93
2022-12-08T12:27:25.257Z,7.10
2022-12-08T12:30:32.098Z,8.23
2022-12-08T12:33:34.947Z,9.30
2022-12-08T12:36:49.171Z,9.27
2022-12-08T12:39:59.709Z,7.27
2022-12-08T12:43:01.378Z,6.90
2022-12-08T12:46:26.141Z,10.13
2022-12-08T12:49:40.114Z,10.57
2022-12-08T12:52:42.975Z,8.80
2022-12-08T12:55:53.932Z,6.40
2022-12-08T12:58:55.604Z,6.50
2022-12-08T13:01:57.349Z,8.50
2022-12-08T13:05:07.651Z,6.37
2022-12-08T13:08:23.702Z,11.47
2022-12-08T13:11:26.005Z,7.70
2022-12-08T13:14:36.936Z,7.53
2022-12-08T13:17:45.016Z,7.33
2022-12-08T13:20:51.331Z,6.37
2022-12-08T13:24:13.795Z,5.30
2022-12-08T13:27:32.119Z,6.80
2022-12-08T13:30:54.709Z,7.93
2022-12-08T13:33:56.519Z,7.97
2022-12-08T13:37:26.582Z,7.20
2022-12-08T13:40:32.135Z,8.00
2022-12-08T13:44:56.764Z,6.33
2022-12-08T13:47:34.532Z,11.90
2022-12-08T13:57:55.725Z,8.23
2022-12-08T14:01:22.780Z,6.70
2022-12-08T14:07:51.951Z,5.80
2022-12-08T14:10:59.714Z,7.33
2022-12-08T14:15:01.348Z,6.43
2022-12-08T14:17:56.500Z,6.57
2022-12-08T14:21:20.890Z,5.77
2022-12-08T14:24:24.587Z,8.90
2022-12-08T14:27:31.973Z,5.57
2022-12-08T14:30:36.131Z,12.87
2022-12-08T14:33:37.816Z,12.67
2022-12-08T14:36:39.513Z,11.17
2022-12-08T14:39:41.268Z,10.77
2022-12-08T14:42:45.947Z,14.43
2022-12-08T14:45:48.621Z,9.23
2022-12-08T14:48:50.368Z,7.83
2022-12-08T14:51:52.079Z,8.40
2022-12-08T14:54:54.654Z,7.97
2022-12-08T14:57:56.339Z,9.77
2022-12-08T15:00:59.474Z,7.70
2022-12-08T15:04:26.866Z,10.30
2022-12-08T15:07:44.767Z,12.03
2022-12-08T15:10:48.157Z,6.80
2022-12-08T15:13:52.250Z,6.60
2022-12-08T15:16:55.226Z,5.37
2022-12-08T15:19:58.675Z,6.40
2022-12-08T15:23:00.422Z,7.97
2022-12-08T15:26:04.781Z,8.33
2022-12-08T15:29:27.379Z,6.90
2022-12-08T15:32:29.025Z,8.53
2022-12-08T15:35:31.994Z,9.13
2022-12-08T15:38:35.558Z,12.07
2022-12-08T15:41:37.836Z,8.57
2022-12-08T15:44:40.310Z,8.17
2022-12-08T15:47:43.369Z,9.73
2022-12-08T15:50:45.399Z,9.23
2022-12-08T15:53:47.007Z,6.53
2022-12-08T15:57:18.495Z,7.67
2022-12-08T16:00:51.343Z,10.70
2022-12-08T16:07:23.164Z,8.10
2022-12-08T16:10:35.395Z,12.97
2022-12-08T16:13:58.452Z,14.77
2022-12-08T16:17:14.443Z,10.47
2022-12-08T16:20:18.027Z,12.67
2022-12-08T16:23:41.509Z,11.33
2022-12-08T16:30:06.390Z,11.77
2022-12-08T16:33:09.314Z,11.97
2022-12-08T16:36:11.282Z,13.83
2022-12-08T16:39:14.170Z,14.60
2022-12-08T16:42:36.823Z,12.93
2022-12-08T16:45:44.971Z,12.63
2022-12-08T16:48:46.973Z,12.60
2022-12-08T16:51:48.668Z,11.03
2022-12-08T16:54:50.361Z,13.57
2022-12-08T16:57:52.542Z,14.47
2022-12-08T17:00:54.301Z,12.80
2022-12-08T17:04:29.350Z,12.87
2022-12-08T17:07:17.736Z,17.53
2022-12-08T17:10:22.902Z,14.47
2022-12-08T17:13:24.555Z,15.17
2022-12-08T17:16:26.938Z,18.63
2022-12-08T17:19:28.735Z,12.87
2022-12-08T17:22:31.769Z,18.23
2022-12-08T17:25:33.441Z,15.30
2022-12-08T17:28:58.753Z,14.57
2022-12-08T17:31:57.614Z,18.47
2022-12-08T17:34:59.351Z,17.80
2022-12-08T17:38:00.997Z,20.07
2022-12-08T17:41:05.131Z,20.57
2022-12-08T17:44:14.920Z,16.83
2022-12-08T17:47:16.686Z,15.67
2022-12-08T17:50:18.476Z,16.40
2022-12-08T17:53:20.464Z,18.40
2022-12-08T17:56:22.144Z,16.40
2022-12-08T17:59:24.339Z,21.40
2022-12-08T18:02:26.055Z,18.87
2022-12-08T18:05:27.747Z,18.00
2022-12-08T18:08:29.497Z,20.53
2022-12-08T18:11:31.265Z,21.23
2022-12-08T18:14:32.915Z,22.23
2022-12-08T18:17:34.589Z,28.97
2022-12-08T18:20:37.401Z,22.07
2022-12-08T18:23:40.359Z,21.53
2022-12-08T18:26:41.997Z,23.93
2022-12-08T18:29:43.664Z,23.13
2022-12-08T18:32:46.021Z,25.70
2022-12-08T18:35:47.727Z,26.07
2022-12-08T18:38:50.316Z,23.17
2022-12-08T18:41:52.899Z,21.77
2022-12-08T18:44:58.778Z,23.93
2022-12-08T18:48:00.498Z,18.80
2022-12-08T18:51:02.831Z,19.13
2022-12-08T18:54:04.581Z,23.70
2022-12-08T18:57:06.610Z,23.50
2022-12-08T19:00:12.734Z,21.57
2022-12-08T19:03:14.427Z,22.67
2022-12-08T19:06:16.363Z,19.43
2022-12-08T19:09:18.294Z,20.37
2022-12-08T19:12:19.950Z,28.47
2022-12-08T19:15:21.692Z,24.20
2022-12-08T19:18:23.569Z,25.17
2022-12-08T19:21:25.522Z,25.53
2022-12-08T19:24:27.274Z,25.50
2022-12-08T19:27:29.116Z,24.13
2022-12-08T19:30:32.165Z,26.90
2022-12-08T19:33:34.216Z,25.93
2022-12-08T19:36:42.015Z,27.30
2022-12-08T19:40:02.284Z,25.73
2022-12-08T19:43:22.831Z,31.07
2022-12-08T19:46:25.829Z,33.00
2022-12-08T19:49:28.247Z,28.73
2022-12-08T19:52:29.885Z,27.60
2022-12-08T19:55:31.643Z,26.57
2022-12-08T19:58:33.276Z,25.80
2022-12-08T20:01:35.037Z,32.57
2022-12-08T20:04:36.857Z,26.27
2022-12-08T20:07:38.975Z,27.07
2022-12-08T20:10:43.289Z,24.60
2022-12-08T20:13:45.806Z,27.57
2022-12-08T20:16:47.952Z,29.33
2022-12-08T20:19:49.991Z,29.07
2022-12-08T20:22:51.623Z,27.93
2022-12-08T20:25:53.278Z,26.33
2022-12-08T20:28:54.921Z,28.33
2022-12-08T20:31:56.756Z,30.23
2022-12-08T20:34:58.551Z,30.07
2022-12-08T20:38:00.204Z,29.03
2022-12-08T20:41:01.862Z,29.47
2022-12-08T20:44:05.285Z,27.70
2022-12-08T20:47:07.012Z,33.50
2022-12-08T20:50:09.676Z,27.33
2022-12-08T20:53:11.592Z,32.13
2022-12-08T20:56:21.637Z,27.90
2022-12-08T20:59:23.557Z,25.73
2022-12-08T21:02:25.741Z,31.80
2022-12-08T21:05:27.834Z,36.53
2022-12-08T21:08:30.025Z,34.13
2022-12-08T21:11:32.048Z,31.07
2022-12-08T21:14:33.766Z,25.27
2022-12-08T21:17:35.712Z,34.17
2022-12-08T21:20:37.715Z,30.83
2022-12-08T21:23:40.232Z,32.83
2022-12-08T21:26:41.974Z,30.03
2022-12-08T21:29:43.684Z,28.07
2022-12-08T21:32:45.462Z,33.90
2022-12-08T21:35:47.280Z,32.27
2022-12-08T21:38:49.733Z,33.07
2022-12-08T21:42:10.492Z,35.37
2022-12-08T21:45:17.261Z,31.03
2022-12-08T21:48:19.052Z,27.47
2022-12-08T21:51:20.925Z,31.13
2022-12-08T21:54:23.013Z,29.27
2022-12-08T21:57:24.845Z,27.50
2022-12-08T22:00:26.670Z,22.50
2022-12-08T22:03:29.788Z,29.63
2022-12-08T22:06:31.665Z,29.47
2022-12-08T22:09:33.946Z,33.93
2022-12-08T22:12:37.186Z,28.30
2022-12-08T22:15:39.285Z,35.30
2022-12-08T22:18:42.118Z,26.20
2022-12-08T22:21:44.005Z,28.87
2022-12-08T22:24:45.922Z,30.47
2022-12-08T22:27:47.869Z,28.30
2022-12-08T22:30:49.756Z,28.90
2022-12-08T22:33:52.097Z,24.07
2022-12-08T22:36:54.001Z,34.67
2022-12-08T22:39:55.804Z,29.40
2022-12-08T22:42:57.732Z,29.67
2022-12-08T22:45:59.856Z,29.67
2022-12-08T22:49:02.017Z,23.20
2022-12-08T22:52:04.083Z,26.03
2022-12-08T22:55:06.495Z,26.77
2022-12-08T22:58:08.186Z,28.57
2022-12-08T23:01:22.226Z,28.70
2022-12-08T23:04:24.001Z,27.40
2022-12-08T23:07:26.006Z,34.60
2022-12-08T23:10:28.375Z,35.10
2022-12-08T23:13:30.245Z,25.83
2022-12-08T23:16:33.218Z,29.17
2022-12-08T23:19:36.846Z,25.00
2022-12-08T23:22:38.550Z,29.57
2022-12-08T23:25:41.488Z,27.07
2022-12-08T23:28:43.231Z,23.30
2022-12-08T23:31:45.247Z,24.63
2022-12-08T23:34:47.064Z,20.53
2022-12-08T23:37:48.783Z,24.00
2022-12-08T23:40:50.532Z,26.40
2022-12-08T23:43:52.597Z,25.27
2022-12-08T23:46:54.710Z,26.53
2022-12-08T23:49:56.858Z,20.67
2022-12-08T23:52:58.971Z,27.00
2022-12-08T23:56:02.025Z,20.77
2022-12-08T23:59:04.155Z,22.13
